Terminal Aerodrome Forecast
Issued by NWS Binghamton, NY

Home | Current Version | Previous Version | Text Only | Print | Product List | Glossary On
Versions: 1 2 3 4 5 6 7 8 9 10 11 12 13 14 15 16 17 18 19 20 21
768
FTUS41 KBGM 211140
TAFAVP
TAF
KAVP 211140Z 2112/2212 20004KT P6SM SCT080 WS020/25025KT
     FM211500 23010KT P6SM BKN080
     FM212100 28011G18KT P6SM OVC030
      TEMPO 2121/2123 5SM -SHRA OVC015
     FM212300 33008G15KT P6SM OVC020
     FM220000 36009KT P6SM OVC035=

USA.gov is the U.S. government's official web portal to all federal, state and local government web resources and services.